Weather History for KJOT - February, 2013

Change the Weather History Date:

Tuesday, February 26, 2013

  Actual Average (KLOT) Record (KLOT)
Temperature  
Mean Temperature 33 °F 32 °F  
Max Temperature 34 °F 40 °F 64 °F (2000)
Min Temperature 32 °F 23 °F -1 °F (1994)
Degree Days  
Heating Degree Days 32 34  
Month to date heating degree days 982  
Since 1 July heating degree days 4663  
Cooling Degree Days 0 0  
Month to date cooling degree days 0  
Year to date cooling degree days 0  
Moisture  
Dew Point 29 °F    
Average Humidity 86    
Maximum Humidity 99    
Minimum Humidity 66    
Precipitation  
Precipitation 0.18 in 0.08 in 1.49 in (2009)
Month to date precipitation 1.62  
Year to date precipitation 3.55  
Snow  
Snow 0.00 in 0.20 in 2.20 in (2013)
Month to date snowfall 6.0  
Since 1 July snowfall 27.0  
Snow Depth -    
Sea Level Pressure  
Sea Level Pressure 29.61 in    
Wind  
Wind Speed 15 mph (NE)    
Max Wind Speed 23 mph    
Max Gust Speed 33 mph    
Visibility 6 miles    
Events Rain , Snow    
T = Trace of Precipitation, MM = Missing Value Source: NWS Daily Summary

Daily Weather History Graph

Daily Weather History Graph

Search for Another Location

Airport or City:

Trip Planner

Search our weather history database for the weather conditions in past years. The results will help you decide how hot, cold, wet, or windy it might be!

Date:

Astronomy

Feb. 26, 2013 Rise Set
Actual Time 6:31 AM CST 5:40 PM CST
Civil Twilight 6:03 AM CST 6:08 PM CST
Nautical Twilight 5:31 AM CST 6:40 PM CST
Astronomical Twilight 4:59 AM CST 7:12 PM CST
Moon 6:58 PM CST (2/26) 6:32 AM CST (2/26)
Length of Visible Light 12h 04m
Length of Day
11h 08m
Full, 99% of the Moon is Illuminated
Feb 26
Full
Mar 4
Last Quarter
Mar 11
New
Mar 19
First Quarter
Mar 27
Full

Hourly Weather History & Observations

Time (CST) Temp. Windchill Dew Point Humidity Pressure Visibility Wind Dir Wind Speed Gust Speed Precip Events Conditions
12:15 AM 34.9 °F 26.2 °F 27.1 °F 73% 29.92 in 10.0 mi ENE 12.7 mph 18.4 mph N/A   Clear
12:35 AM 34.7 °F 24.7 °F 27.0 °F 73% 29.91 in 10.0 mi ENE 16.1 mph - N/A   Clear
12:55 AM 34.7 °F 26.4 °F 27.0 °F 73% 29.91 in 10.0 mi ENE 11.5 mph 19.6 mph N/A   Clear
1:15 AM 34.7 °F 26.4 °F 27.1 °F 74% 29.90 in 10.0 mi ENE 11.5 mph 17.3 mph N/A   Clear
1:35 AM 34.3 °F 24.6 °F 27.1 °F 75% 29.87 in 10.0 mi ENE 15.0 mph - N/A   Clear
1:55 AM 34.2 °F 24.8 °F 27.3 °F 76% 29.86 in 10.0 mi ENE 13.8 mph 20.7 mph N/A   Clear
2:15 AM 34.0 °F 26.0 °F 27.3 °F 77% 29.85 in 10.0 mi ENE 10.4 mph 18.4 mph N/A   Clear
2:35 AM 33.8 °F 25.8 °F 27.1 °F 77% 29.84 in 10.0 mi ENE 10.4 mph 18.4 mph N/A   Clear
2:55 AM 34.0 °F 24.6 °F 27.0 °F 75% 29.81 in 10.0 mi ENE 13.8 mph 21.9 mph N/A   Clear
3:15 AM 34.0 °F 23.4 °F 26.6 °F 74% 29.81 in 10.0 mi ENE 17.3 mph 23.0 mph N/A   Clear
3:35 AM 33.8 °F 22.8 °F 26.6 °F 75% 29.80 in 10.0 mi ENE 18.4 mph 21.9 mph N/A   Scattered Clouds
3:55 AM 33.8 °F 22.5 °F 26.4 °F 74% 29.78 in 10.0 mi ENE 19.6 mph 25.3 mph N/A   Scattered Clouds
4:15 AM 33.4 °F 23.5 °F 26.2 °F 75% 29.77 in 10.0 mi ENE 15.0 mph 26.5 mph N/A   Scattered Clouds
4:35 AM 33.6 °F 23.3 °F 25.7 °F 73% 29.75 in 10.0 mi ENE 16.1 mph 23.0 mph N/A   Scattered Clouds
4:55 AM 33.8 °F 23.2 °F 25.5 °F 72% 29.73 in 10.0 mi ENE 17.3 mph 27.6 mph N/A   Clear
5:15 AM 33.8 °F 23.2 °F 25.3 °F 71% 29.73 in 10.0 mi ENE 17.3 mph 27.6 mph N/A   Clear
5:35 AM 33.8 °F 22.8 °F 24.8 °F 70% 29.72 in 10.0 mi ENE 18.4 mph 25.3 mph N/A   Scattered Clouds
5:55 AM 33.8 °F 22.8 °F 24.8 °F 70% 29.70 in 10.0 mi NE 18.4 mph 27.6 mph N/A   Scattered Clouds
6:15 AM 33.8 °F 21.9 °F 24.8 °F 70% 29.71 in 10.0 mi ENE 21.9 mph 29.9 mph N/A   Mostly Cloudy
6:35 AM 34.0 °F 23.0 °F 24.8 °F 69% 29.73 in 10.0 mi ENE 18.4 mph 28.8 mph N/A   Overcast
6:55 AM 34.2 °F 24.0 °F 24.8 °F 69% 29.73 in 10.0 mi ENE 16.1 mph 25.3 mph N/A   Overcast
7:15 AM 34.2 °F 23.0 °F 24.8 °F 69% 29.71 in 10.0 mi ENE 19.6 mph 26.5 mph N/A   Mostly Cloudy
7:35 AM 34.7 °F 23.7 °F 24.8 °F 67% 29.69 in 10.0 mi ENE 19.6 mph 27.6 mph N/A   Scattered Clouds
7:55 AM 34.3 °F 23.9 °F 24.6 °F 68% 29.68 in 10.0 mi ENE 17.3 mph 27.6 mph N/A   Mostly Cloudy
8:15 AM 34.5 °F 23.8 °F 24.4 °F 67% 29.66 in 10.0 mi ENE 18.4 mph 28.8 mph N/A   Scattered Clouds
8:35 AM 34.7 °F 24.0 °F 24.6 °F 67% 29.64 in 10.0 mi ENE 18.4 mph 27.6 mph N/A   Scattered Clouds
8:55 AM 34.9 °F 23.3 °F 24.6 °F 66% 29.61 in 10.0 mi NE 21.9 mph 28.8 mph N/A   Clear
9:15 AM 34.7 °F 22.8 °F 26.1 °F 71% 29.58 in 10.0 mi NE 23.0 mph 29.9 mph N/A Snow Snow
9:35 AM 34.2 °F 23.6 °F 27.3 °F 76% 29.57 in 10.0 mi NE 17.3 mph 28.8 mph N/A   Light Drizzle
9:55 AM 33.8 °F 21.6 °F 27.5 °F 78% 29.57 in 10.0 mi ENE 23.0 mph 33.4 mph N/A Rain Light Rain
10:15 AM 32.9 °F 21.6 °F 28.8 °F 85% 29.57 in 4.0 mi ENE 18.4 mph 33.4 mph 0.02 in Rain Rain
10:35 AM 32.5 °F 21.2 °F 29.7 °F 89% 29.58 in 2.5 mi ENE 18.4 mph 26.5 mph 0.08 in Rain Rain
10:55 AM 32.4 °F 22.5 °F 30.0 °F 91% 29.57 in 3.0 mi NE 13.8 mph 26.5 mph 0.11 in Rain Light Rain
11:15 AM 32.4 °F 22.5 °F 30.2 °F 92% 29.56 in 3.0 mi NE 13.8 mph 25.3 mph 0.03 in Snow Light Snow
11:35 AM 32.4 °F 21.7 °F 30.2 °F 92% 29.55 in 4.0 mi NE 16.1 mph 25.3 mph 0.03 in Snow Light Snow
11:55 AM 32.2 °F 22.3 °F 30.7 °F 94% 29.53 in 1.2 mi NE 13.8 mph 23.0 mph 0.03 in Snow Light Snow
12:15 PM 32.2 °F 21.8 °F 31.1 °F 96% 29.53 in 1.0 mi NE 15.0 mph 24.2 mph 0.01 in Snow Light Snow
12:35 PM 32.0 °F 20.8 °F 31.1 °F 96% 29.51 in 0.8 mi NE 17.3 mph 21.9 mph 0.02 in Snow Light Snow
12:55 PM 32.0 °F 22.5 °F 31.5 °F 98% 29.50 in 0.8 mi NE 12.7 mph 23.0 mph 0.02 in Snow Light Snow
1:15 PM 32.0 °F 22.1 °F 31.6 °F 99% 29.51 in 0.8 mi NE 13.8 mph 20.7 mph 0.01 in Snow Light Snow
1:35 PM 32.2 °F 23.8 °F 31.6 °F 98% 29.50 in 1.2 mi NE 10.4 mph 19.6 mph 0.02 in Snow Light Snow
1:55 PM 32.4 °F 20.9 °F 31.6 °F 97% 29.50 in 2.5 mi NE 18.4 mph 25.3 mph 0.02 in Snow Light Snow
2:15 PM 32.4 °F 21.7 °F 31.5 °F 96% 29.49 in 1.5 mi NE 16.1 mph 25.3 mph N/A Snow Light Snow
2:35 PM 32.4 °F 22.1 °F 31.5 °F 96% 29.49 in 1.5 mi NE 15.0 mph 19.6 mph N/A Snow Light Snow
2:55 PM 32.2 °F 21.1 °F 31.5 °F 97% 29.49 in 1.2 mi NNE 17.3 mph 24.2 mph N/A Snow Light Snow
3:15 PM 32.4 °F 22.1 °F 31.5 °F 96% 29.49 in 1.5 mi NNE 15.0 mph 23.0 mph N/A Snow Light Snow
3:35 PM 32.4 °F 22.5 °F 31.5 °F 96% 29.49 in 1.5 mi NE 13.8 mph 24.2 mph N/A Snow Light Snow
3:55 PM 32.2 °F 22.3 °F 31.3 °F 96% 29.49 in 2.5 mi NNE 13.8 mph 25.3 mph N/A Snow Light Snow
4:15 PM 32.2 °F 21.4 °F 31.3 °F 96% 29.49 in 2.5 mi NE 16.1 mph 26.5 mph N/A Snow Light Snow
4:35 PM 32.2 °F 21.1 °F 31.1 °F 96% 29.49 in 2.5 mi NE 17.3 mph 24.2 mph N/A Snow Light Snow
4:55 PM 32.0 °F 21.6 °F 31.1 °F 96% 29.50 in 1.2 mi NE 15.0 mph 21.9 mph N/A Snow Light Snow
5:15 PM 32.0 °F 21.6 °F 31.5 °F 98% 29.50 in 1.5 mi NE 15.0 mph - N/A Snow Light Snow
5:35 PM 32.2 °F 21.4 °F 31.5 °F 97% 29.51 in 2.5 mi NE 16.1 mph 23.0 mph N/A Snow Light Snow
5:55 PM 32.4 °F 22.5 °F 31.5 °F 96% 29.51 in 4.0 mi NNE 13.8 mph 20.7 mph N/A Snow Light Snow
6:15 PM 32.4 °F 23.0 °F 31.6 °F 97% 29.51 in 4.0 mi NE 12.7 mph 23.0 mph N/A Snow Light Snow
6:35 PM 32.5 °F 22.3 °F 31.6 °F 96% 29.51 in 4.0 mi NE 15.0 mph 18.4 mph N/A Snow Light Snow
6:55 PM 32.7 °F 22.5 °F 31.6 °F 96% 29.51 in 4.0 mi NE 15.0 mph 20.7 mph N/A Snow Light Snow
7:15 PM 32.9 °F 22.8 °F 31.6 °F 95% 29.51 in 5.0 mi NNE 15.0 mph 20.7 mph N/A Snow Light Snow
7:35 PM 32.9 °F 22.8 °F 31.6 °F 95% 29.51 in 5.0 mi NNE 15.0 mph 21.9 mph N/A   Overcast
7:55 PM 32.9 °F 22.8 °F 31.6 °F 95% 29.51 in 5.0 mi NE 15.0 mph 23.0 mph N/A   Overcast
8:15 PM 32.7 °F 23.9 °F 31.6 °F 96% 29.51 in 2.5 mi NNE 11.5 mph - N/A Snow Light Snow
8:35 PM 32.7 °F 23.4 °F 31.8 °F 96% 29.51 in 3.0 mi NNE 12.7 mph 16.1 mph N/A Snow Light Snow
8:55 PM 32.9 °F 24.7 °F 31.8 °F 96% 29.51 in 4.0 mi NE 10.4 mph - N/A Snow Light Snow
9:15 PM 32.9 °F 25.3 °F 31.8 °F 96% 29.51 in 5.0 mi NNE 9.2 mph 17.3 mph N/A Snow Light Snow
9:35 PM 32.9 °F 25.9 °F 31.8 °F 96% 29.51 in 4.0 mi NNE 8.1 mph - N/A Snow Light Snow
9:55 PM 32.9 °F 25.3 °F 31.8 °F 96% 29.51 in 5.0 mi NNE 9.2 mph - N/A Snow Light Snow
10:15 PM 32.9 °F 24.7 °F 31.8 °F 96% 29.51 in 5.0 mi NNE 10.4 mph - N/A Rain Light Rain
10:35 PM 32.9 °F 25.3 °F 31.8 °F 96% 29.51 in 5.0 mi NNE 9.2 mph 16.1 mph N/A Rain Light Rain
10:55 PM 32.9 °F 25.9 °F 31.8 °F 96% 29.51 in 7.0 mi NNE 8.1 mph - N/A Rain Light Rain
11:15 PM 32.9 °F 25.9 °F 31.8 °F 96% 29.51 in 7.0 mi NNE 8.1 mph - N/A   Drizzle
11:35 PM 32.9 °F 25.3 °F 31.8 °F 96% 29.51 in 5.0 mi NNE 9.2 mph - N/A   Drizzle
11:55 PM 32.9 °F 26.7 °F 31.8 °F 96% 29.51 in 5.0 mi North 6.9 mph - N/A   Drizzle